Time;durP1;ratioP1;P1;durP2;ratioP2;P2;SDS_P1;SDS_P2;PMS_P1;PMS_P2;Temp;Humidity;BMP_temperature;BMP_pressure;BME280_temperature;BME280_humidity;BME280_pressure;Samples;Min_cycle;Max_cycle;Signal;HPM_P1;HPM_P2
2023/05/17 00:00:50;;;;;;;11.73;4.50;;;;;;;8.31;100.00;102382.72;4995158;28;20034;-71
2023/05/17 00:03:15;;;;;;;11.25;3.45;;;;;;;8.26;100.00;102378.81;4995193;28;20386;-71
2023/05/17 00:05:41;;;;;;;12.45;4.88;;;;;;;8.22;100.00;102386.22;4995056;28;20389;-71
2023/05/17 00:08:06;;;;;;;10.15;5.05;;;;;;;8.19;100.00;102383.84;4994940;28;20061;-71
2023/05/17 00:10:31;;;;;;;7.85;3.40;;;;;;;8.21;100.00;102387.22;4995059;28;20037;-71
2023/05/17 00:12:57;;;;;;;12.23;5.00;;;;;;;8.23;100.00;102385.25;4995229;28;20482;-71
2023/05/17 00:15:22;;;;;;;16.63;5.07;;;;;;;8.17;100.00;102375.19;4995140;28;20457;-71
2023/05/17 00:17:49;;;;;;;10.43;4.40;;;;;;;8.22;100.00;102386.22;4994943;28;20058;-71
2023/05/17 00:20:14;;;;;;;13.05;3.80;;;;;;;8.20;100.00;102385.53;4977472;28;20034;-71
2023/05/17 00:22:39;;;;;;;15.93;4.80;;;;;;;8.19;100.00;102389.16;4994154;28;20092;-71
2023/05/17 00:25:06;;;;;;;15.25;5.72;;;;;;;8.18;100.00;102384.84;4991401;28;20030;-71
2023/05/17 00:27:31;;;;;;;11.50;4.32;;;;;;;8.16;100.00;102381.47;4991772;28;20034;-71
2023/05/17 00:29:57;;;;;;;12.63;4.55;;;;;;;8.17;100.00;102383.16;4992028;28;20116;-71
2023/05/17 00:32:22;;;;;;;9.50;4.00;;;;;;;8.17;100.00;102387.63;4991883;28;20030;-71
2023/05/17 00:34:48;;;;;;;10.85;3.83;;;;;;;8.15;100.00;102379.81;4974013;28;20049;-71
2023/05/17 00:37:13;;;;;;;13.00;4.78;;;;;;;8.16;100.00;102386.78;4991628;28;20121;-71
2023/05/17 00:39:38;;;;;;;13.43;3.65;;;;;;;8.15;100.00;102386.94;4991750;28;20042;-71
2023/05/17 00:42:05;;;;;;;15.93;6.28;;;;;;;8.11;100.00;102381.06;4991679;28;20019;-71
2023/05/17 00:44:30;;;;;;;14.60;4.20;;;;;;;8.11;100.00;102375.75;4991543;28;20049;-71
2023/05/17 00:46:58;;;;;;;12.40;4.38;;;;;;;8.11;100.00;102392.53;4991362;28;20038;-71
2023/05/17 00:49:24;;;;;;;15.48;4.10;;;;;;;8.04;100.00;102377.31;4991185;28;20065;-71
2023/05/17 00:51:51;;;;;;;12.85;4.55;;;;;;;8.00;100.00;102371.44;4991503;28;20077;-71
2023/05/17 00:54:17;;;;;;;11.65;4.32;;;;;;;8.07;100.00;102375.22;4991363;28;20030;-71
2023/05/17 00:56:43;;;;;;;16.27;4.45;;;;;;;8.03;100.00;102379.13;4991418;28;20042;-71
2023/05/17 00:59:11;;;;;;;10.00;4.03;;;;;;;8.01;100.00;102381.06;4991792;28;20485;-71
2023/05/17 01:01:40;;;;;;;9.85;3.65;;;;;;;7.99;100.00;102379.53;4991378;28;20042;-71
2023/05/17 01:04:07;;;;;;;15.23;4.28;;;;;;;7.98;100.00;102385.84;4973521;28;20037;-71
2023/05/17 01:06:32;;;;;;;17.13;6.35;;;;;;;7.98;100.00;102367.25;4991241;28;20030;-71
2023/05/17 01:08:58;;;;;;;11.55;5.57;;;;;;;7.99;100.00;102376.88;4991098;28;20392;-71
2023/05/17 01:11:38;;;;;;;13.55;5.40;;;;;;;8.01;100.00;102382.91;4973263;28;20034;-71
2023/05/17 01:14:37;;;;;;;11.43;5.32;;;;;;;7.99;100.00;102385.72;4973470;28;20518;-71
2023/05/17 01:17:05;;;;;;;13.65;4.50;;;;;;;8.00;100.00;102384.72;4990898;28;20037;-71
2023/05/17 01:19:55;;;;;;;11.30;3.60;;;;;;;7.92;100.00;102379.28;4991239;28;20512;-71
2023/05/17 01:22:27;;;;;;;12.38;3.85;;;;;;;7.98;100.00;102399.97;4990948;28;20034;-71
2023/05/17 01:25:09;;;;;;;;;;;;;;;8.01;100.00;102396.19;4991391;28;20026;-71
2023/05/17 01:27:38;;;;;;;9.27;4.25;;;;;;;7.96;100.00;102396.59;4990806;28;19925;-71
2023/05/17 01:30:07;;;;;;;20.13;6.22;;;;;;;7.94;100.00;102387.09;4990796;28;20034;-71
2023/05/17 01:32:33;;;;;;;19.40;5.78;;;;;;;7.91;100.00;102388.22;4990744;28;20065;-71
2023/05/17 01:34:59;;;;;;;9.50;3.75;;;;;;;7.89;100.00;102384.88;4990335;28;20116;-71
2023/05/17 01:37:24;;;;;;;16.27;4.35;;;;;;;7.85;100.00;102381.66;4990530;28;20027;-71
2023/05/17 01:39:49;;;;;;;11.57;4.90;;;;;;;7.84;100.00;102376.50;4990596;28;20034;-71
2023/05/17 01:42:25;;;;;;;14.15;4.40;;;;;;;7.88;100.00;102386.69;4990585;28;20033;-71
2023/05/17 01:45:11;;;;;;;12.68;4.72;;;;;;;7.89;100.00;102387.53;4990367;28;20477;-71
2023/05/17 01:48:15;;;;;;;8.27;4.03;;;;;;;7.89;100.00;102385.72;4990211;28;20034;-71
2023/05/17 01:50:42;;;;;;;15.63;4.72;;;;;;;7.91;100.00;102390.88;4929834;29;20099;-71
2023/05/17 01:53:16;;;;;;;13.35;4.43;;;;;;;7.81;100.00;102366.16;4929973;29;20044;-71
2023/05/17 01:55:48;;;;;;;12.57;4.03;;;;;;;7.79;100.00;102370.78;4961822;28;20453;-71
2023/05/17 01:58:14;;;;;;;;;;;;;;;7.85;100.00;102376.34;4990413;28;20030;-71
2023/05/17 02:00:43;;;;;;;18.17;5.00;;;;;;;7.79;100.00;102381.41;4990835;28;19924;-71
2023/05/17 02:03:16;;;;;;;16.95;4.45;;;;;;;7.80;100.00;102389.19;4990085;28;20117;-71
2023/05/17 02:05:41;;;;;;;14.60;4.72;;;;;;;7.80;100.00;102389.19;4990068;28;20030;-71
2023/05/17 02:08:07;;;;;;;15.55;5.93;;;;;;;7.79;100.00;102392.84;4989867;28;20429;-71
2023/05/17 02:10:32;;;;;;;13.55;4.13;;;;;;;7.78;100.00;102377.03;4989942;28;20654;-71
2023/05/17 02:12:57;;;;;;;20.98;5.25;;;;;;;7.76;100.00;102382.50;4972527;28;20532;-71
2023/05/17 02:15:22;;;;;;;12.15;5.32;;;;;;;7.75;100.00;102382.63;4989890;28;20567;-71
2023/05/17 02:17:48;;;;;;;26.52;5.90;;;;;;;7.74;100.00;102375.66;4989959;28;20620;-71
2023/05/17 02:20:13;;;;;;;13.90;4.95;;;;;;;7.73;100.00;102372.19;4972508;28;20395;-71
2023/05/17 02:22:39;;;;;;;16.20;5.38;;;;;;;7.73;100.00;102381.94;4989742;28;20169;-71
2023/05/17 02:25:05;;;;;;;12.40;5.07;;;;;;;7.71;100.00;102373.28;4989718;28;20034;-71
2023/05/17 02:27:31;;;;;;;16.02;6.05;;;;;;;7.77;100.00;102380.69;4989538;28;20034;-71
2023/05/17 02:29:56;;;;;;;13.82;4.68;;;;;;;7.79;100.00;102384.88;4989768;28;20440;-71
2023/05/17 02:32:21;;;;;;;14.90;4.70;;;;;;;7.83;100.00;102385.44;4972324;28;20057;-71
2023/05/17 02:34:47;;;;;;;14.30;4.72;;;;;;;7.87;100.00;102390.31;4989350;28;20038;-71
2023/05/17 02:37:12;;;;;;;16.42;4.90;;;;;;;7.89;100.00;102383.06;4989469;28;20512;-71
2023/05/17 02:39:38;;;;;;;14.15;5.03;;;;;;;7.92;100.00;102389.91;4989518;28;20393;-71
2023/05/17 02:42:03;;;;;;;14.75;3.80;;;;;;;7.90;100.00;102390.03;4989384;28;20064;-71
2023/05/17 02:44:28;;;;;;;14.40;4.47;;;;;;;7.96;100.00;102399.25;4989416;28;20417;-71
2023/05/17 02:46:54;;;;;;;15.45;4.68;;;;;;;7.99;100.00;102398.13;4988815;28;20145;-71
2023/05/17 02:49:19;;;;;;;13.93;5.90;;;;;;;8.03;100.00;102388.91;4989327;28;20093;-71
2023/05/17 02:51:45;;;;;;;15.02;4.78;;;;;;;8.03;100.00;102389.75;4970806;28;20035;-71
2023/05/17 02:54:10;;;;;;;15.55;5.50;;;;;;;8.09;100.00;102399.81;4970697;28;20316;-71
2023/05/17 02:56:35;;;;;;;14.02;4.68;;;;;;;8.12;100.00;102402.19;4970670;28;20042;-71
2023/05/17 02:59:01;;;;;;;17.85;6.10;;;;;;;8.15;100.00;102400.22;4989185;28;20129;-71
2023/05/17 03:01:27;;;;;;;18.08;4.85;;;;;;;8.16;100.00;102402.75;4989104;28;20069;-71
2023/05/17 03:03:52;;;;;;;16.00;5.90;;;;;;;8.19;100.00;102405.09;4989090;28;20125;-71
2023/05/17 03:06:18;;;;;;;16.13;4.63;;;;;;;8.21;100.00;102405.81;4989183;28;20509;-71
2023/05/17 03:08:43;;;;;;;14.50;5.43;;;;;;;8.20;100.00;102393.53;4989140;28;20034;-71
2023/05/17 03:11:09;;;;;;;16.38;4.90;;;;;;;8.24;100.00;102412.66;4971580;28;20037;-71
2023/05/17 03:13:34;;;;;;;13.55;5.07;;;;;;;8.27;100.00;102413.19;4989098;28;20026;-71
2023/05/17 03:15:59;;;;;;;16.40;5.05;;;;;;;8.28;100.00;102409.59;4989279;28;20489;-71
2023/05/17 03:18:25;;;;;;;15.48;4.97;;;;;;;8.31;100.00;102411.13;4988944;28;20192;-71
2023/05/17 03:20:50;;;;;;;11.73;4.88;;;;;;;8.34;100.00;102424.13;4989341;28;20061;-71
2023/05/17 03:23:15;;;;;;;23.48;6.22;;;;;;;8.33;100.00;102415.31;4989035;28;20026;-71
2023/05/17 03:25:41;;;;;;;17.27;5.03;;;;;;;8.37;100.00;102421.16;4989017;28;20053;-71
2023/05/17 03:28:06;;;;;;;10.60;4.90;;;;;;;8.33;100.00;102417.97;4988758;28;20088;-71
2023/05/17 03:30:32;;;;;;;15.13;5.28;;;;;;;8.35;100.00;102423.13;4988883;28;20030;-71
2023/05/17 03:32:57;;;;;;;15.80;6.15;;;;;;;8.30;100.00;102425.38;4988914;28;20033;-71
2023/05/17 03:35:22;;;;;;;16.13;6.80;;;;;;;8.31;100.00;102435.88;4988897;28;20474;-71
2023/05/17 03:37:48;;;;;;;20.20;6.22;;;;;;;8.29;100.00;102429.84;4971402;28;20039;-71
2023/05/17 03:40:13;;;;;;;15.75;4.45;;;;;;;8.29;100.00;102431.69;4988834;28;20041;-71
2023/05/17 03:42:38;;;;;;;17.60;6.38;;;;;;;8.25;100.00;102436.47;4988890;28;20041;-71
2023/05/17 03:45:04;;;;;;;20.67;7.90;;;;;;;8.19;100.00;102429.03;4988846;28;20081;-71
2023/05/17 03:47:29;;;;;;;16.33;6.05;;;;;;;8.18;100.00;102437.16;4988718;28;20129;-71
2023/05/17 03:49:55;;;;;;;10.52;4.63;;;;;;;8.22;100.00;102447.34;4988785;28;20059;-71
2023/05/17 03:52:20;;;;;;;16.02;5.50;;;;;;;8.21;100.00;102444.84;4988842;28;20084;-71
2023/05/17 03:54:45;;;;;;;16.27;5.63;;;;;;;8.18;100.00;102442.47;4988689;28;20482;-71
2023/05/17 03:57:11;;;;;;;14.68;5.97;;;;;;;8.18;100.00;102453.09;4988638;28;20124;-71
2023/05/17 03:59:36;;;;;;;13.38;4.53;;;;;;;8.15;100.00;102456.03;4992426;28;20081;-71
2023/05/17 04:02:01;;;;;;;13.23;5.63;;;;;;;8.16;100.00;102460.38;4992655;28;20018;-71
2023/05/17 04:04:27;;;;;;;17.95;5.35;;;;;;;8.10;100.00;102449.31;4992288;28;20037;-71
2023/05/17 04:06:52;;;;;;;15.55;5.13;;;;;;;8.12;100.00;102457.16;4992244;28;20123;-71
2023/05/17 04:09:18;;;;;;;17.65;6.68;;;;;;;8.13;100.00;102458.84;4992381;28;20374;-71
2023/05/17 04:11:44;;;;;;;22.80;7.35;;;;;;;8.13;100.00;102464.16;4992139;28;20030;-71
2023/05/17 04:14:09;;;;;;;16.90;6.55;;;;;;;8.12;100.00;102459.81;4992093;28;20088;-71
2023/05/17 04:16:34;;;;;;;18.20;6.95;;;;;;;8.12;100.00;102451.81;4992183;28;20030;-71
2023/05/17 04:19:00;;;;;;;20.15;6.82;;;;;;;8.12;100.00;102459.81;4992140;28;20034;-71
2023/05/17 04:21:25;;;;;;;18.58;6.60;;;;;;;8.05;100.00;102456.06;4992332;28;20105;-71
2023/05/17 04:23:51;;;;;;;17.73;5.80;;;;;;;8.10;100.00;102472.41;4992028;28;20504;-71
2023/05/17 04:26:17;;;;;;;13.20;4.93;;;;;;;8.10;100.00;102473.25;4991936;28;20084;-71
2023/05/17 04:28:43;;;;;;;14.50;5.05;;;;;;;8.10;100.00;102470.59;4992020;28;20905;-71
2023/05/17 04:31:08;;;;;;;15.32;5.97;;;;;;;8.14;100.00;102476.44;4991768;28;20614;-71
2023/05/17 04:33:35;;;;;;;18.23;6.05;;;;;;;8.10;100.00;102480.38;4991795;28;20034;-71
2023/05/17 04:36:01;;;;;;;11.95;4.63;;;;;;;8.13;100.00;102477.44;4991794;28;20401;-71
2023/05/17 04:38:26;;;;;;;17.90;5.57;;;;;;;8.16;100.00;102478.97;4991117;28;20054;-71
2023/05/17 04:40:52;;;;;;;15.05;5.95;;;;;;;8.18;100.00;102487.66;4992066;28;20085;-71
2023/05/17 04:43:17;;;;;;;13.75;5.47;;;;;;;8.20;100.00;102491.84;4974337;28;20116;-71
2023/05/17 04:45:43;;;;;;;16.33;6.55;;;;;;;8.26;100.00;102495.75;4991592;28;20050;-71
2023/05/17 04:48:09;;;;;;;21.33;7.20;;;;;;;8.31;100.00;102501.50;4991534;28;20034;-71
2023/05/17 04:50:34;;;;;;;13.23;4.78;;;;;;;8.32;100.00;102489.88;4991388;28;20454;-71
2023/05/17 04:52:59;;;;;;;10.45;5.05;;;;;;;8.37;100.00;102500.94;4974184;28;20034;-71
2023/05/17 04:55:25;;;;;;;16.73;5.55;;;;;;;8.38;100.00;102501.75;4991442;28;20492;-71
2023/05/17 04:57:51;;;;;;;16.10;5.30;;;;;;;8.41;100.00;102497.06;4991286;28;20354;-71
2023/05/17 05:00:17;;;;;;;14.68;5.20;;;;;;;8.45;100.00;102502.91;4991264;28;20089;-71
2023/05/17 05:02:43;;;;;;;17.42;6.28;;;;;;;8.53;100.00;102511.84;4991395;28;20497;-71
2023/05/17 05:05:09;;;;;;;20.17;8.13;;;;;;;8.62;100.00;102510.16;4991394;28;20137;-71
2023/05/17 05:07:35;;;;;;;15.27;4.97;;;;;;;8.73;100.00;102514.50;4991169;28;20027;-71
2023/05/17 05:10:00;;;;;;;15.15;6.25;;;;;;;8.73;100.00;102515.31;4990565;28;20030;-71
2023/05/17 05:12:26;;;;;;;13.65;5.25;;;;;;;8.90;100.00;102524.38;4991286;28;20067;-71
2023/05/17 05:14:51;;;;;;;14.02;5.45;;;;;;;8.98;100.00;102519.16;4973669;28;20125;-71
2023/05/17 05:17:17;;;;;;;16.15;5.05;;;;;;;9.09;100.00;102526.16;4991281;28;20054;-71
2023/05/17 05:19:42;;;;;;;14.80;6.15;;;;;;;9.16;100.00;102529.06;4991178;28;20109;-71
2023/05/17 05:22:07;;;;;;;17.40;4.88;;;;;;;9.27;100.00;102528.03;4990891;28;20106;-71
2023/05/17 05:24:33;;;;;;;21.40;8.23;;;;;;;9.48;100.00;102539.28;4991066;28;20162;-71
2023/05/17 05:26:58;;;;;;;15.98;5.18;;;;;;;9.93;100.00;102534.94;4991167;28;20089;-71
2023/05/17 05:29:23;;;;;;;17.38;7.10;;;;;;;10.45;100.00;102540.47;4973383;28;20040;-71
2023/05/17 05:31:49;;;;;;;11.88;5.40;;;;;;;10.82;100.00;102547.41;4991097;28;20481;-71
2023/05/17 05:34:14;;;;;;;14.85;6.90;;;;;;;11.02;100.00;102548.06;4990766;28;20026;-71
2023/05/17 05:36:40;;;;;;;16.42;5.78;;;;;;;11.21;100.00;102545.16;4973326;28;20097;-71
2023/05/17 05:39:05;;;;;;;14.23;5.28;;;;;;;11.19;100.00;102550.66;4990480;28;20433;-71
2023/05/17 05:41:31;;;;;;;12.02;5.65;;;;;;;11.10;100.00;102548.09;4990743;28;20077;-71
2023/05/17 05:43:57;;;;;;;17.63;5.43;;;;;;;10.98;100.00;102555.56;4990833;28;20474;-71
2023/05/17 05:46:22;;;;;;;16.75;4.80;;;;;;;10.78;100.00;102554.06;4990181;28;20033;-71
2023/05/17 05:48:47;;;;;;;16.42;6.75;;;;;;;10.65;100.00;102554.47;4990593;28;20062;-71
2023/05/17 05:51:13;;;;;;;17.95;5.15;;;;;;;10.63;100.00;102553.78;4990512;28;20481;-71
2023/05/17 05:53:38;;;;;;;14.55;6.03;;;;;;;10.66;100.00;102559.69;4990283;28;20042;-71
2023/05/17 05:56:04;;;;;;;16.65;7.63;;;;;;;10.65;100.00;102568.66;4990751;28;20061;-71
2023/05/17 05:58:30;;;;;;;13.35;5.22;;;;;;;10.61;100.00;102567.31;4990201;28;20044;-71
2023/05/17 06:00:56;;;;;;;17.10;5.13;;;;;;;10.61;100.00;102571.78;4990221;28;20076;-71
2023/05/17 06:03:22;;;;;;;14.75;4.90;;;;;;;10.59;100.00;102579.13;4972644;28;20030;-70
2023/05/17 06:05:47;;;;;;;22.10;5.20;;;;;;;10.57;100.00;102573.94;4990341;28;20061;-70
2023/05/17 06:08:13;;;;;;;16.67;4.95;;;;;;;10.63;100.00;102578.63;4990062;28;20129;-70
2023/05/17 06:10:38;;;;;;;15.23;4.55;;;;;;;10.60;100.00;102584.28;4989988;28;20034;-70
2023/05/17 06:13:03;;;;;;;23.83;6.22;;;;;;;10.58;100.00;102593.44;4990069;28;20478;-70
2023/05/17 06:15:30;;;;;;;10.90;4.40;;;;;;;10.57;100.00;102594.44;4989850;28;20473;-70
2023/05/17 06:17:56;;;;;;;10.25;4.28;;;;;;;10.56;100.00;102596.28;4989929;28;20041;-70
2023/05/17 06:20:21;;;;;;;11.73;3.50;;;;;;;10.60;100.00;102602.13;4972199;28;20506;-70
2023/05/17 06:22:46;;;;;;;14.63;4.55;;;;;;;10.61;100.00;102599.31;4971551;28;20100;-70
2023/05/17 06:25:12;;;;;;;15.75;4.10;;;;;;;10.68;100.00;102610.19;4989806;28;20033;-70
2023/05/17 06:27:37;;;;;;;10.52;3.80;;;;;;;10.73;100.00;102599.91;4990044;28;20042;-71
2023/05/17 06:30:03;;;;;;;17.58;4.72;;;;;;;10.78;97.46;102610.97;4989731;28;20363;-70
2023/05/17 06:32:29;;;;;;;10.38;2.95;;;;;;;10.80;93.17;102611.66;4972431;28;20057;-70
2023/05/17 06:34:55;;;;;;;14.23;3.80;;;;;;;10.81;96.80;102609.81;4989648;28;20081;-70
2023/05/17 06:37:21;;;;;;;11.18;3.90;;;;;;;10.77;97.38;102617.31;4989727;28;20026;-70
2023/05/17 06:39:46;;;;;;;11.98;4.07;;;;;;;10.77;94.69;102613.75;4989503;28;20467;-70
2023/05/17 06:42:12;;;;;;;13.60;2.35;;;;;;;10.81;92.51;102613.31;4971979;28;20162;-69
2023/05/17 06:44:37;;;;;;;16.30;3.03;;;;;;;10.81;93.44;102615.16;4989511;28;20026;-69
2023/05/17 06:47:03;;;;;;;6.15;2.42;;;;;;;10.78;89.31;102615.47;4989121;28;20045;-70
2023/05/17 06:49:28;;;;;;;10.85;3.05;;;;;;;10.85;89.58;102622.69;4970689;28;20529;-70
2023/05/17 06:51:56;;;;;;;12.82;3.03;;;;;;;10.96;89.63;102618.94;4989140;28;20038;-70
2023/05/17 06:54:21;;;;;;;17.77;4.13;;;;;;;11.03;88.35;102621.81;4989444;28;20069;-70
2023/05/17 06:56:46;;;;;;;6.35;2.20;;;;;;;11.05;85.32;102618.00;4989343;28;20026;-70
2023/05/17 06:59:12;;;;;;;12.88;2.50;;;;;;;11.14;87.97;102618.91;4989757;28;20512;-70
2023/05/17 07:01:38;;;;;;;15.20;3.45;;;;;;;11.28;86.78;102618.31;4971990;28;20030;-70
2023/05/17 07:04:04;;;;;;;18.17;4.75;;;;;;;11.46;88.68;102620.09;4989547;28;20034;-71
2023/05/17 07:06:30;;;;;;;10.98;3.72;;;;;;;11.54;87.53;102609.44;4984009;28;20038;-69
2023/05/17 07:08:55;;;;;;;8.90;2.35;;;;;;;11.71;87.40;102621.91;4980593;28;20084;-70
2023/05/17 07:11:20;;;;;;;8.25;2.65;;;;;;;11.79;85.33;102626.44;4980897;28;20038;-70
2023/05/17 07:13:46;;;;;;;12.73;3.05;;;;;;;11.83;86.04;102622.44;4979974;28;20145;-70
2023/05/17 07:16:11;;;;;;;9.32;2.35;;;;;;;11.95;83.34;102633.72;4979857;28;20132;-70
2023/05/17 07:18:36;;;;;;;9.93;2.85;;;;;;;11.96;81.94;102630.88;4979410;28;20042;-70
2023/05/17 07:21:02;;;;;;;12.77;3.40;;;;;;;11.82;82.23;102618.94;4980447;28;20120;-70
2023/05/17 07:23:27;;;;;;;16.33;4.85;;;;;;;12.01;80.57;102643.75;4980201;28;20037;-69
2023/05/17 07:25:53;;;;;;;8.35;2.47;;;;;;;12.06;81.85;102636.91;4979597;28;20034;-71
2023/05/17 07:28:18;;;;;;;15.02;2.95;;;;;;;12.26;79.95;102647.31;4979833;28;20030;-68
2023/05/17 07:30:43;;;;;;;11.05;2.70;;;;;;;12.27;78.60;102647.16;4980123;28;20058;-69
2023/05/17 07:33:09;;;;;;;6.18;2.22;;;;;;;12.36;78.19;102642.66;4982263;28;20030;-69
2023/05/17 07:35:34;;;;;;;9.00;1.85;;;;;;;12.38;76.53;102648.69;4984252;28;20894;-69
2023/05/17 07:38:00;;;;;;;10.48;2.75;;;;;;;12.40;76.74;102659.25;4983842;28;20031;-70
2023/05/17 07:40:25;;;;;;;13.13;3.05;;;;;;;12.38;76.11;102656.72;4984089;28;20152;-70
2023/05/17 07:42:51;;;;;;;7.60;2.42;;;;;;;12.25;76.65;102651.84;4984464;28;20117;-69
2023/05/17 07:45:18;;;;;;;11.68;2.72;;;;;;;12.13;77.52;102654.97;4983853;28;20026;-70
2023/05/17 07:47:43;;;;;;;12.60;2.63;;;;;;;12.00;78.06;102656.28;4982945;28;20049;-69
2023/05/17 07:50:09;;;;;;;13.93;2.88;;;;;;;11.95;77.25;102657.78;4984068;28;20054;-70
2023/05/17 07:52:34;;;;;;;9.98;2.55;;;;;;;11.81;76.23;102651.97;4984025;28;20057;-70
2023/05/17 07:55:00;;;;;;;6.35;2.33;;;;;;;11.89;77.78;102661.91;4983745;28;20034;-70
2023/05/17 07:57:26;;;;;;;11.68;3.58;;;;;;;11.89;74.58;102663.75;4983915;28;20033;-70
2023/05/17 07:59:51;;;;;;;8.50;1.80;;;;;;;11.84;71.75;102667.72;4983857;28;20026;-69
2023/05/17 08:02:16;;;;;;;6.93;2.33;;;;;;;11.88;74.00;102668.28;4966487;28;20141;-69
2023/05/17 08:04:42;;;;;;;12.10;2.58;;;;;;;12.02;74.46;102673.00;4983871;28;20031;-69
2023/05/17 08:07:07;;;;;;;12.48;3.55;;;;;;;12.27;74.71;102673.09;4984236;28;20161;-70
2023/05/17 08:09:32;;;;;;;11.05;2.83;;;;;;;13.73;69.97;102666.06;4982909;28;20033;-69
2023/05/17 08:11:58;;;;;;;6.50;1.63;;;;;;;15.76;60.06;102670.09;4983734;28;20103;-69
2023/05/17 08:14:23;;;;;;;8.80;2.45;;;;;;;17.14;52.80;102664.75;4983417;28;20092;-70
2023/05/17 08:16:50;;;;;;;4.80;2.00;;;;;;;17.51;51.42;102661.66;4983647;28;20065;-69
2023/05/17 08:19:16;;;;;;;5.75;2.17;;;;;;;19.30;51.17;102656.94;4983852;28;20026;-70
2023/05/17 08:21:44;;;;;;;7.85;2.30;;;;;;;20.86;45.61;102661.25;4965930;28;20038;-70
2023/05/17 08:24:10;;;;;;;10.43;1.88;;;;;;;20.55;43.50;102654.78;4983827;28;20084;-70
2023/05/17 08:26:36;;;;;;;10.02;2.40;;;;;;;20.53;45.82;102663.09;4967689;28;20038;-71
2023/05/17 08:29:01;;;;;;;14.32;2.45;;;;;;;21.42;42.63;102663.84;4983015;28;20033;-71
2023/05/17 08:31:27;;;;;;;6.57;1.80;;;;;;;20.39;42.74;102661.53;4983372;28;20046;-71
2023/05/17 08:33:53;;;;;;;12.00;3.10;;;;;;;18.92;47.05;102661.13;4983498;28;20537;-71
2023/05/17 08:36:18;;;;;;;8.38;2.08;;;;;;;18.12;48.27;102666.34;4982905;28;20026;-71
2023/05/17 08:38:44;;;;;;;10.57;1.70;;;;;;;18.17;50.24;102663.03;4984423;28;20061;-70
2023/05/17 08:41:09;;;;;;;9.02;2.70;;;;;;;19.50;45.83;102663.13;4983229;28;20097;-70
2023/05/17 08:43:35;;;;;;;20.08;4.65;;;;;;;20.48;42.68;102643.94;4982878;28;20030;-70
2023/05/17 08:46:02;;;;;;;11.50;2.72;;;;;;;21.38;41.64;102657.22;4982276;28;20202;-70
2023/05/17 08:48:29;;;;;;;11.27;2.55;;;;;;;21.72;40.64;102657.69;4982554;28;21522;-71
2023/05/17 08:50:56;;;;;;;9.88;2.55;;;;;;;21.44;38.92;102664.47;4982686;28;20058;-72
2023/05/17 08:53:23;;;;;;;14.18;2.85;;;;;;;19.33;42.11;102657.31;4983768;28;20029;-72
2023/05/17 08:55:49;;;;;;;11.23;3.15;;;;;;;17.61;47.91;102669.41;4982521;28;20046;-71
2023/05/17 08:58:23;;;;;;;10.05;1.88;;;;;;;16.78;51.34;102669.22;4982319;28;20034;-73
2023/05/17 09:00:50;;;;;;;10.52;2.22;;;;;;;16.18;51.73;102673.09;4983355;28;20026;-71
2023/05/17 09:03:17;;;;;;;8.57;2.22;;;;;;;15.83;50.63;102678.28;4982416;28;20062;-71
2023/05/17 09:05:44;;;;;;;9.07;2.28;;;;;;;15.50;51.92;102654.38;4982614;28;20023;-71
2023/05/17 09:08:12;;;;;;;5.90;1.38;;;;;;;15.49;52.24;102655.41;4982419;28;20030;-71
2023/05/17 09:10:41;;;;;;;9.52;1.77;;;;;;;15.32;51.70;102672.72;4981950;28;20536;-70
2023/05/17 09:13:09;;;;;;;12.05;3.05;;;;;;;15.23;53.46;102669.31;4967128;28;20152;-71
2023/05/17 09:15:36;;;;;;;6.82;1.55;;;;;;;15.20;50.86;102669.66;4982479;28;20106;-70
2023/05/17 09:18:02;;;;;;;4.70;1.27;;;;;;;15.27;52.44;102665.25;4982342;28;20034;-70
2023/05/17 09:20:33;;;;;;;7.57;1.95;;;;;;;15.11;50.10;102668.88;4981680;28;20105;-70
2023/05/17 09:22:59;;;;;;;5.22;1.80;;;;;;;15.08;52.10;102661.19;4982540;28;20452;-70
2023/05/17 09:25:25;;;;;;;8.15;2.80;;;;;;;15.15;52.49;102669.38;4964770;28;20026;-70
2023/05/17 09:27:52;;;;;;;8.65;2.22;;;;;;;15.06;51.54;102667.78;4981902;28;20041;-70
2023/05/17 09:30:17;;;;;;;7.10;1.83;;;;;;;14.91;54.38;102675.81;4982443;28;21002;-70
2023/05/17 09:32:44;;;;;;;8.02;1.95;;;;;;;14.80;51.46;102673.53;4982778;28;20046;-71
2023/05/17 09:35:10;;;;;;;6.95;1.83;;;;;;;14.69;52.20;102678.31;4981528;28;20062;-70
2023/05/17 09:37:37;;;;;;;7.03;1.92;;;;;;;14.57;54.54;102668.19;4982337;28;20058;-69
2023/05/17 09:40:05;;;;;;;8.60;2.33;;;;;;;14.69;54.97;102662.19;4981707;28;20038;-70
2023/05/17 09:42:35;;;;;;;6.80;1.92;;;;;;;14.78;54.13;102665.66;4982085;28;20031;-70
2023/05/17 09:45:01;;;;;;;6.65;2.03;;;;;;;15.01;53.79;102670.16;4981910;28;20023;-70
2023/05/17 09:47:27;;;;;;;10.88;2.38;;;;;;;15.04;52.91;102657.22;4981438;28;20045;-70
2023/05/17 09:49:56;;;;;;;9.38;3.20;;;;;;;14.82;53.71;102669.66;4981621;28;20572;-70
2023/05/17 09:52:23;;;;;;;14.85;2.70;;;;;;;14.56;57.77;102667.31;4981664;28;20026;-71
2023/05/17 09:54:57;;;;;;;8.77;3.05;;;;;;;14.53;59.23;102662.31;4966341;28;20045;-70
2023/05/17 09:57:25;;;;;;;6.13;1.88;;;;;;;14.53;57.93;102656.13;4981302;28;20504;-70
2023/05/17 09:59:54;;;;;;;10.27;2.78;;;;;;;14.50;58.17;102661.81;4982105;28;20062;-71
2023/05/17 10:02:22;;;;;;;5.25;1.67;;;;;;;14.53;58.82;102656.13;4981399;28;20030;-70
2023/05/17 10:04:52;;;;;;;9.88;3.47;;;;;;;14.56;57.83;102659.25;4981573;28;20065;-71
2023/05/17 10:07:19;;;;;;;3.78;1.85;;;;;;;14.61;59.47;102666.78;4981477;28;20038;-70
2023/05/17 10:09:51;;;;;;;7.28;2.38;;;;;;;14.66;57.24;102661.72;4981650;28;20064;-70
2023/05/17 10:12:17;;;;;;;;;;;;;;;14.78;59.65;102665.66;4981094;28;20497;-70
2023/05/17 10:14:43;;;;;;;12.80;2.75;;;;;;;14.68;55.97;102673.13;4965453;28;20450;-70
2023/05/17 10:17:10;;;;;;;5.43;1.63;;;;;;;14.92;55.96;102672.09;4982140;28;20050;-71
2023/05/17 10:19:37;;;;;;;4.32;1.75;;;;;;;15.07;52.35;102674.84;4981760;28;20030;-71
2023/05/17 10:22:02;;;;;;;5.20;2.55;;;;;;;14.87;53.31;102678.00;4981294;28;20026;-70
2023/05/17 10:24:29;;;;;;;9.23;2.15;;;;;;;14.87;51.83;102672.63;4981127;28;20415;-71
2023/05/17 10:26:56;;;;;;;6.95;1.65;;;;;;;14.93;53.84;102668.38;4980903;28;20038;-72
2023/05/17 10:29:22;;;;;;;4.13;1.50;;;;;;;14.92;53.32;102668.59;4981191;28;20029;-71
2023/05/17 10:31:51;;;;;;;9.00;1.60;;;;;;;15.11;51.83;102670.75;4981137;28;20031;-69
2023/05/17 10:34:18;;;;;;;6.18;1.88;;;;;;;15.25;50.84;102672.66;4981085;28;20034;-70
2023/05/17 10:36:45;;;;;;;6.95;1.95;;;;;;;15.19;50.04;102667.97;4981004;28;20113;-71
2023/05/17 10:39:11;;;;;;;9.23;3.28;;;;;;;15.32;48.87;102667.34;4981052;28;20449;-71
2023/05/17 10:41:40;;;;;;;3.95;1.40;;;;;;;15.30;49.74;102656.81;4980532;28;20112;-71
2023/05/17 10:44:08;;;;;;;5.97;2.20;;;;;;;15.53;49.66;102669.31;4965350;28;20369;-71
2023/05/17 10:46:35;;;;;;;4.05;1.70;;;;;;;15.47;49.47;102657.44;4979245;28;20038;-71
2023/05/17 10:49:02;;;;;;;7.20;1.85;;;;;;;15.36;51.74;102655.22;4979638;28;20052;-71
2023/05/17 10:51:31;;;;;;;7.78;1.95;;;;;;;15.46;49.89;102661.19;4979994;28;20524;-71
2023/05/17 10:54:17;;;;;;;7.25;2.30;;;;;;;15.52;51.28;102663.13;4962574;28;20030;-71
2023/05/17 10:56:50;;;;;;;6.93;1.63;;;;;;;15.43;51.44;102652.63;4980108;28;20032;-71
2023/05/17 10:59:23;;;;;;;7.38;2.38;;;;;;;15.30;48.90;102650.56;4979917;28;20049;-71
2023/05/17 11:01:53;;;;;;;4.28;2.15;;;;;;;15.45;51.44;102642.53;4979670;28;20026;-71
2023/05/17 11:04:39;;;;;;;6.40;2.47;;;;;;;15.68;49.72;102645.13;4980341;28;20496;-71
2023/05/17 11:07:28;;;;;;;8.93;2.47;;;;;;;15.88;49.46;102648.13;4964897;28;20031;-71
2023/05/17 11:10:10;;;;;;;8.02;2.67;;;;;;;15.48;51.03;102647.53;4980659;28;20113;-74
2023/05/17 11:12:41;;;;;;;10.95;2.25;;;;;;;15.03;52.79;102652.84;4980735;28;20093;-71
2023/05/17 11:15:13;;;;;;;9.70;2.63;;;;;;;14.87;50.32;102647.63;4981017;28;20105;-70
2023/05/17 11:17:53;;;;;;;4.15;2.72;;;;;;;14.61;49.99;102651.50;4980283;28;20081;-71